Time;durP1;ratioP1;P1;durP2;ratioP2;P2;SDS_P1;SDS_P2;PMS_P1;PMS_P2;Temp;Humidity;BMP_temperature;BMP_pressure;BME280_temperature;BME280_humidity;BME280_pressure;Samples;Min_cycle;Max_cycle;Signal;HPM_P1;HPM_P2
2022/07/01 00:01:55;;;;;;;;;;;21.70;61.30;;;;;;5105137;27;19924;-46
2022/07/01 00:04:21;;;;;;;;;;;20.80;59.10;;;;;;5129842;27;20396;-51
2022/07/01 00:06:46;;;;;;;;;;;20.30;56.70;;;;;;5124630;27;19924;-44
2022/07/01 00:09:12;;;;;;;;;;;19.90;55.70;;;;;;5124167;27;19924;-47
2022/07/01 00:11:38;;;;;;;;;;;20.00;54.50;;;;;;5127725;27;20026;-46
2022/07/01 00:14:04;;;;;;;;;;;19.70;54.40;;;;;;5123528;27;19930;-45
2022/07/01 00:16:29;;;;;;;;;;;20.30;60.60;;;;;;5123887;27;20330;-51
2022/07/01 00:18:55;;;;;;;;;;;21.00;61.90;;;;;;5129516;27;19931;-45
2022/07/01 00:21:21;;;;;;;;;;;21.70;60.80;;;;;;5124339;27;20182;-56
2022/07/01 00:23:47;;;;;;;;;;;21.70;60.90;;;;;;5127695;27;19930;-55
2022/07/01 00:26:12;;;;;;;;;;;21.60;60.90;;;;;;5126355;27;19923;-55
2022/07/01 00:28:38;;;;;;;;;;;21.60;60.80;;;;;;5122552;27;19927;-52
2022/07/01 00:31:04;;;;;;;;;;;21.80;59.60;;;;;;5109536;27;19930;-56
2022/07/01 00:33:30;;;;;;;;;;;21.90;58.20;;;;;;5123513;27;19934;-56
2022/07/01 00:35:56;;;;;;;;;;;21.90;57.90;;;;;;5123537;27;20459;-55
2022/07/01 00:38:22;;;;;;;;;;;22.00;57.90;;;;;;5128965;27;19973;-56
2022/07/01 00:40:52;;;;;;;;;;;21.90;57.30;;;;;;5123606;27;19945;-55
2022/07/01 00:43:18;;;;;;;;;;;21.90;57.30;;;;;;5123603;27;19976;-54
2022/07/01 00:45:47;;;;;;;;;;;22.00;57.00;;;;;;5128938;27;19935;-54
2022/07/01 00:48:13;;;;;;;;;;;22.20;56.30;;;;;;5103053;27;19930;-52
2022/07/01 00:50:39;;;;;;;;;;;22.20;55.80;;;;;;5128182;27;19927;-52
2022/07/01 00:53:04;;;;;;;;;;;22.30;55.20;;;;;;5123156;27;19928;-54
2022/07/01 00:55:30;;;;;;;;;;;22.30;55.30;;;;;;5104762;27;19976;-54
2022/07/01 00:57:56;;;;;;;;;;;22.30;55.90;;;;;;5128801;27;20301;-55
2022/07/01 01:00:23;;;;;;;;;;;22.30;55.40;;;;;;5123495;27;19928;-53
2022/07/01 01:02:48;;;;;;;;;;;21.70;56.10;;;;;;5123198;27;20015;-56
2022/07/01 01:05:14;;;;;;;;;;;21.50;55.40;;;;;;5127342;27;19927;-58
2022/07/01 01:07:40;;;;;;;;;;;21.60;56.40;;;;;;5121771;27;20142;-57
2022/07/01 01:10:06;;;;;;;;;;;21.60;56.90;;;;;;5128228;27;19958;-55
2022/07/01 01:12:33;;;;;;;;;;;21.60;57.20;;;;;;5122811;27;19930;-57
2022/07/01 01:14:59;;;;;;;;;;;21.60;57.00;;;;;;5122880;27;19924;-55
2022/07/01 01:17:24;;;;;;;;;;;21.60;56.90;;;;;;5108576;27;19927;-57
2022/07/01 01:19:50;;;;;;;;;;;21.70;56.60;;;;;;5104243;27;19931;-59
2022/07/01 01:22:16;;;;;;;;;;;21.70;56.40;;;;;;5122611;27;20213;-58
2022/07/01 01:24:43;;;;;;;;;;;21.70;56.30;;;;;;5126280;27;20430;-59
2022/07/01 01:27:08;;;;;;;;;;;21.70;55.90;;;;;;5122621;27;19972;-58
2022/07/01 01:29:34;;;;;;;;;;;21.70;55.90;;;;;;5126391;27;19927;-58
2022/07/01 01:32:00;;;;;;;;;;;21.80;55.30;;;;;;5124796;27;19968;-58
2022/07/01 01:34:26;;;;;;;;;;;21.70;55.30;;;;;;5122869;27;20393;-58
2022/07/01 01:36:52;;;;;;;;;;;21.70;55.10;;;;;;5128243;27;19963;-58
2022/07/01 01:39:18;;;;;;;;;;;21.70;55.00;;;;;;5122551;27;19984;-57
2022/07/01 01:41:44;;;;;;;;;;;21.80;54.90;;;;;;5121969;27;19930;-57
2022/07/01 01:44:10;;;;;;;;;;;21.80;55.00;;;;;;5126300;27;20065;-59
2022/07/01 01:46:37;;;;;;;;;;;21.70;55.10;;;;;;5122035;27;20275;-59
2022/07/01 01:49:03;;;;;;;;;;;21.70;55.10;;;;;;5122892;27;19967;-58
2022/07/01 01:51:29;;;;;;;;;;;21.80;54.80;;;;;;5127258;27;19929;-58
2022/07/01 01:53:55;;;;;;;;;;;21.80;54.60;;;;;;5122363;27;19931;-60
2022/07/01 01:56:21;;;;;;;;;;;21.80;54.50;;;;;;5127931;27;19931;-61
2022/07/01 01:58:47;;;;;;;;;;;21.80;54.60;;;;;;5122142;27;19923;-59
2022/07/01 02:01:13;;;;;;;;;;;21.70;54.60;;;;;;5120688;27;19980;-58
2022/07/01 02:03:39;;;;;;;;;;;21.40;53.90;;;;;;5126694;27;20462;-58
2022/07/01 02:06:05;;;;;;;;;;;21.30;52.30;;;;;;5121497;27;20022;-59
2022/07/01 02:08:31;;;;;;;;;;;21.00;51.40;;;;;;5121687;27;20006;-58
2022/07/01 02:10:57;;;;;;;;;;;21.30;53.60;;;;;;5123238;27;19923;-58
2022/07/01 02:13:23;;;;;;;;;;;21.30;54.40;;;;;;5121931;27;19930;-57
2022/07/01 02:15:49;;;;;;;;;;;21.40;54.70;;;;;;5127470;27;19938;-59
2022/07/01 02:18:15;;;;;;;;;;;21.40;54.80;;;;;;5120556;27;19930;-59
2022/07/01 02:20:41;;;;;;;;;;;21.40;55.10;;;;;;5119925;27;19927;-59
2022/07/01 02:23:07;;;;;;;;;;;21.50;55.10;;;;;;5126765;27;20006;-59
2022/07/01 02:25:33;;;;;;;;;;;21.50;55.20;;;;;;5121509;27;20367;-57
2022/07/01 02:27:59;;;;;;;;;;;21.60;55.40;;;;;;5121428;27;20127;-59
2022/07/01 02:30:25;;;;;;;;;;;21.60;55.30;;;;;;5127109;27;19927;-58
2022/07/01 02:32:51;;;;;;;;;;;21.60;55.40;;;;;;5121787;27;20015;-57
2022/07/01 02:35:17;;;;;;;;;;;21.70;55.40;;;;;;5127181;27;20371;-59
2022/07/01 02:37:43;;;;;;;;;;;21.60;55.20;;;;;;5119972;27;19923;-59
2022/07/01 02:40:09;;;;;;;;;;;21.60;55.10;;;;;;5120286;27;19924;-59
2022/07/01 02:42:35;;;;;;;;;;;21.60;55.30;;;;;;5126551;27;20013;-57
2022/07/01 02:45:02;;;;;;;;;;;21.60;55.50;;;;;;5121166;27;19927;-58
2022/07/01 02:47:34;;;;;;;;;;;21.60;55.30;;;;;;5121150;27;20218;-59
2022/07/01 02:50:01;;;;;;;;;;;21.70;55.30;;;;;;5126935;27;19927;-58
2022/07/01 02:52:27;;;;;;;;;;;21.70;55.40;;;;;;5120975;27;19930;-59
2022/07/01 02:54:53;;;;;;;;;;;21.60;55.20;;;;;;5121153;27;19923;-57
2022/07/01 02:57:18;;;;;;;;;;;21.70;54.90;;;;;;5124910;27;19993;-58
2022/07/01 02:59:44;;;;;;;;;;;21.60;54.90;;;;;;5120747;28;19923;-59
2022/07/01 03:02:10;;;;;;;;;;;21.70;54.70;;;;;;5126538;28;19923;-59
2022/07/01 03:04:36;;;;;;;;;;;21.70;54.60;;;;;;5121271;28;19955;-59
2022/07/01 03:07:02;;;;;;;;;;;21.70;54.50;;;;;;5121483;28;19937;-57
2022/07/01 03:09:27;;;;;;;;;;;21.70;54.60;;;;;;5126853;28;20383;-58
2022/07/01 03:11:53;;;;;;;;;;;21.80;54.40;;;;;;5121345;27;19924;-58
2022/07/01 03:14:19;;;;;;;;;;;21.80;54.40;;;;;;5120153;28;19923;-60
2022/07/01 03:16:47;;;;;;;;;;;21.80;54.20;;;;;;5125309;28;19923;-57
2022/07/01 03:19:13;;;;;;;;;;;21.80;54.10;;;;;;5120564;28;20393;-58
2022/07/01 03:21:38;;;;;;;;;;;21.70;54.30;;;;;;5126188;28;20020;-59
2022/07/01 03:24:04;;;;;;;;;;;21.70;54.50;;;;;;5120774;28;19923;-59
2022/07/01 03:26:30;;;;;;;;;;;21.80;54.30;;;;;;5121054;28;20302;-59
2022/07/01 03:28:56;;;;;;;;;;;21.80;54.10;;;;;;5127796;27;19923;-60
2022/07/01 03:31:22;;;;;;;;;;;21.80;54.10;;;;;;5125228;27;19927;-58
2022/07/01 03:33:47;;;;;;;;;;;21.80;53.90;;;;;;5123472;27;20630;-59
2022/07/01 03:36:13;;;;;;;;;;;21.80;53.70;;;;;;5129902;27;19931;-59
2022/07/01 03:38:39;;;;;;;;;;;21.80;53.60;;;;;;5125096;27;19927;-59
2022/07/01 03:41:05;;;;;;;;;;;21.80;53.70;;;;;;5130401;27;20275;-60
2022/07/01 03:43:31;;;;;;;;;;;21.80;53.70;;;;;;5124814;27;19938;-60
2022/07/01 03:45:56;;;;;;;;;;;21.80;53.80;;;;;;5124780;27;20011;-58
2022/07/01 03:48:22;;;;;;;;;;;21.80;53.80;;;;;;5129964;27;20205;-58
2022/07/01 03:50:48;;;;;;;;;;;21.80;54.00;;;;;;5123507;27;19930;-60
2022/07/01 03:55:58;;;;;;;;;;;21.80;53.30;;;;;;5130022;27;20357;-57
2022/07/01 03:58:24;;;;;;;;;;;21.80;53.20;;;;;;5124409;27;19935;-60
2022/07/01 04:00:50;;;;;;;;;;;21.80;53.50;;;;;;5124517;27;20205;-59
2022/07/01 04:03:16;;;;;;;;;;;21.70;54.10;;;;;;5129898;27;19923;-59
2022/07/01 04:05:41;;;;;;;;;;;21.80;54.10;;;;;;5124347;27;19976;-59
2022/07/01 04:08:08;;;;;;;;;;;21.80;53.50;;;;;;5129577;27;19934;-59
2022/07/01 04:10:34;;;;;;;;;;;21.50;52.10;;;;;;5122466;27;19931;-58
2022/07/01 04:13:00;;;;;;;;;;;21.30;50.90;;;;;;5123874;27;19982;-60
2022/07/01 04:15:26;;;;;;;;;;;21.30;50.70;;;;;;5129552;27;19923;-60
2022/07/01 04:17:51;;;;;;;;;;;21.40;53.10;;;;;;5124007;27;19930;-59
2022/07/01 04:20:17;;;;;;;;;;;21.60;53.70;;;;;;5124072;27;19923;-59
2022/07/01 04:22:43;;;;;;;;;;;21.50;54.10;;;;;;5129748;27;19931;-61
2022/07/01 04:25:09;;;;;;;;;;;21.50;54.60;;;;;;5123977;27;19928;-60
2022/07/01 04:27:34;;;;;;;;;;;21.50;54.80;;;;;;5128239;27;20438;-56
2022/07/01 04:30:02;;;;;;;;;;;21.60;54.90;;;;;;5103575;27;19924;-58
2022/07/01 04:32:28;;;;;;;;;;;21.60;55.00;;;;;;5123595;27;20327;-60
2022/07/01 04:34:54;;;;;;;;;;;21.60;54.90;;;;;;5128964;27;20356;-60
2022/07/01 04:37:20;;;;;;;;;;;21.70;54.90;;;;;;5123950;27;19923;-61
2022/07/01 04:39:45;;;;;;;;;;;21.80;55.10;;;;;;5123589;27;19924;-59
2022/07/01 04:42:12;;;;;;;;;;;21.80;55.00;;;;;;5128844;27;20321;-59
2022/07/01 04:44:38;;;;;;;;;;;21.80;54.80;;;;;;5123735;27;20029;-59
2022/07/01 04:47:04;;;;;;;;;;;21.70;54.90;;;;;;5104516;27;19937;-54
2022/07/01 04:49:30;;;;;;;;;;;21.70;54.80;;;;;;5126865;27;19950;-59
2022/07/01 04:51:55;;;;;;;;;;;21.80;54.90;;;;;;5123519;27;19927;-59
2022/07/01 04:54:21;;;;;;;;;;;21.80;54.90;;;;;;5128740;27;19985;-60
2022/07/01 04:56:47;;;;;;;;;;;21.80;54.70;;;;;;5123615;27;20370;-58
2022/07/01 04:59:13;;;;;;;;;;;21.80;54.50;;;;;;5123557;27;20076;-57
2022/07/01 05:01:40;;;;;;;;;;;21.80;54.40;;;;;;5128467;27;19930;-59
2022/07/01 05:04:06;;;;;;;;;;;21.80;54.20;;;;;;5122299;27;19927;-58
2022/07/01 05:06:33;;;;;;;;;;;21.80;54.10;;;;;;5122238;27;19970;-59
2022/07/01 05:08:59;;;;;;;;;;;21.80;54.10;;;;;;5128302;27;19923;-59
2022/07/01 05:11:25;;;;;;;;;;;21.80;54.00;;;;;;5123213;27;19979;-60
2022/07/01 05:13:51;;;;;;;;;;;21.80;53.90;;;;;;5128462;27;19923;-59
2022/07/01 05:16:17;;;;;;;;;;;21.80;54.00;;;;;;5103395;27;21272;-60
2022/07/01 05:24:11;;;;;;;;;;;21.80;54.70;;;;;;5121853;27;19971;-59
2022/07/01 05:26:37;;;;;;;;;;;21.70;54.80;;;;;;5123166;27;19932;-58
2022/07/01 05:29:03;;;;;;;;;;;21.80;54.50;;;;;;5128307;27;19927;-59
2022/07/01 05:31:29;;;;;;;;;;;21.80;54.40;;;;;;5123506;27;20023;-59
2022/07/01 05:33:54;;;;;;;;;;;21.80;54.30;;;;;;5123541;27;20366;-57
2022/07/01 05:36:20;;;;;;;;;;;21.80;54.20;;;;;;5128578;27;20363;-58
2022/07/01 05:38:46;;;;;;;;;;;21.90;54.00;;;;;;5123558;27;19927;-58
2022/07/01 05:41:12;;;;;;;;;;;21.80;54.10;;;;;;5125196;27;19987;-57
2022/07/01 05:43:38;;;;;;;;;;;21.90;53.90;;;;;;5124676;27;19928;-56
2022/07/01 05:46:04;;;;;;;;;;;21.80;54.10;;;;;;5122995;27;19923;-56
2022/07/01 05:48:30;;;;;;;;;;;21.80;54.40;;;;;;5127831;27;19923;-57
2022/07/01 05:50:55;;;;;;;;;;;21.80;54.50;;;;;;5123020;27;19927;-57
2022/07/01 05:53:22;;;;;;;;;;;21.80;54.30;;;;;;5122993;27;19934;-55
2022/07/01 05:55:47;;;;;;;;;;;21.90;54.20;;;;;;5109550;27;20355;-56
2022/07/01 05:58:13;;;;;;;;;;;21.80;54.20;;;;;;5123122;27;19935;-55
2022/07/01 06:00:42;;;;;;;;;;;21.90;54.10;;;;;;5122054;27;19978;-54
2022/07/01 06:03:08;;;;;;;;;;;22.00;54.00;;;;;;5127150;27;20037;-56
2022/07/01 06:05:34;;;;;;;;;;;21.90;53.90;;;;;;5123020;27;19931;-56
2022/07/01 06:08:00;;;;;;;;;;;21.80;54.00;;;;;;5127565;27;20327;-57
2022/07/01 06:10:26;;;;;;;;;;;21.80;54.30;;;;;;5123047;27;20299;-56
2022/07/01 06:12:52;;;;;;;;;;;21.80;54.40;;;;;;5123034;27;19923;-53
2022/07/01 06:15:17;;;;;;;;;;;21.80;54.10;;;;;;5127628;27;19924;-55
2022/07/01 06:17:43;;;;;;;;;;;21.40;52.40;;;;;;5121830;27;20363;-55
2022/07/01 06:20:09;;;;;;;;;;;21.30;51.70;;;;;;5121832;27;19924;-54
2022/07/01 06:22:35;;;;;;;;;;;21.30;51.80;;;;;;5127246;27;19932;-54
2022/07/01 06:25:01;;;;;;;;;;;21.40;53.60;;;;;;5122622;27;19939;-55
2022/07/01 06:27:26;;;;;;;;;;;21.50;54.10;;;;;;5127358;27;19931;-52
2022/07/01 06:29:52;;;;;;;;;;;21.60;54.10;;;;;;5122693;27;19923;-50
2022/07/01 06:32:18;;;;;;;;;;;21.60;54.10;;;;;;5122569;27;19931;-56
2022/07/01 06:34:44;;;;;;;;;;;21.60;54.30;;;;;;5108187;27;19924;-53
2022/07/01 06:37:10;;;;;;;;;;;21.60;54.60;;;;;;5121093;27;19980;-54
2022/07/01 06:39:36;;;;;;;;;;;21.70;54.50;;;;;;5122156;27;20437;-55
2022/07/01 06:42:01;;;;;;;;;;;21.70;54.70;;;;;;5127242;27;20040;-55
2022/07/01 06:44:27;;;;;;;;;;;21.70;54.80;;;;;;5122793;27;19979;-51
2022/07/01 06:46:53;;;;;;;;;;;21.80;54.80;;;;;;5127386;27;20299;-52
2022/07/01 06:49:19;;;;;;;;;;;21.80;54.70;;;;;;5122996;27;19928;-51
2022/07/01 06:51:44;;;;;;;;;;;21.80;54.50;;;;;;5122755;27;19928;-52
2022/07/01 06:54:10;;;;;;;;;;;21.80;54.70;;;;;;5126388;27;20358;-51
2022/07/01 06:56:36;;;;;;;;;;;21.80;54.80;;;;;;5122000;27;20059;-51
2022/07/01 06:59:02;;;;;;;;;;;21.80;54.80;;;;;;5103003;28;19935;-49
2022/07/01 07:01:28;;;;;;;;;;;21.80;54.60;;;;;;5126981;27;20329;-50
2022/07/01 07:03:54;;;;;;;;;;;21.80;54.70;;;;;;5107584;27;19927;-51
2022/07/01 07:06:19;;;;;;;;;;;21.90;54.50;;;;;;5132923;27;20424;-54
2022/07/01 07:08:45;;;;;;;;;;;21.90;54.40;;;;;;5130926;27;20022;-52
2022/07/01 07:11:11;;;;;;;;;;;21.90;54.20;;;;;;5129372;27;21224;-50
2022/07/01 07:13:37;;;;;;;;;;;21.80;54.20;;;;;;5132638;27;19938;-50
2022/07/01 07:16:03;;;;;;;;;;;21.80;54.20;;;;;;5131323;27;19923;-49
2022/07/01 07:18:28;;;;;;;;;;;21.80;54.30;;;;;;5130543;27;19931;-52
2022/07/01 07:20:54;;;;;;;;;;;21.80;54.20;;;;;;5133966;27;19923;-50
2022/07/01 07:23:20;;;;;;;;;;;21.80;54.10;;;;;;5110467;27;19927;-54
2022/07/01 07:25:46;;;;;;;;;;;21.80;54.10;;;;;;5112673;27;19927;-53
2022/07/01 07:28:12;;;;;;;;;;;21.90;53.90;;;;;;5128113;27;19974;-53
2022/07/01 07:30:37;;;;;;;;;;;21.90;53.90;;;;;;5128984;27;19938;-58
2022/07/01 07:33:03;;;;;;;;;;;22.00;53.80;;;;;;5132155;27;19934;-55
2022/07/01 07:35:29;;;;;;;;;;;21.90;53.90;;;;;;5128656;27;19923;-54
2022/07/01 07:37:55;;;;;;;;;;;21.90;53.90;;;;;;5128562;27;19976;-55
2022/07/01 07:40:21;;;;;;;;;;;21.90;54.20;;;;;;5133363;27;20383;-55
2022/07/01 07:42:47;;;;;;;;;;;21.90;54.10;;;;;;5128413;27;19924;-55
2022/07/01 07:45:14;;;;;;;;;;;21.90;53.80;;;;;;5128448;27;19927;-56
2022/07/01 07:47:48;;;;;;;;;;;21.90;53.70;;;;;;5133134;27;19927;-55
2022/07/01 07:50:13;;;;;;;;;;;22.00;53.50;;;;;;5126490;27;19923;-54
2022/07/01 07:52:39;;;;;;;;;;;22.00;53.40;;;;;;5114178;27;19931;-55
2022/07/01 07:55:05;;;;;;;;;;;22.00;53.30;;;;;;5127377;27;20555;-56
2022/07/01 07:57:31;;;;;;;;;;;21.90;53.50;;;;;;5127697;27;19927;-56
2022/07/01 07:59:57;;;;;;;;;;;21.90;53.80;;;;;;5133185;27;19923;-56
2022/07/01 08:02:22;;;;;;;;;;;22.00;53.90;;;;;;5127990;27;19923;-54
2022/07/01 08:04:48;;;;;;;;;;;22.00;53.90;;;;;;5127677;27;20211;-56
2022/07/01 08:07:14;;;;;;;;;;;22.00;54.10;;;;;;5132662;27;19923;-56
2022/07/01 08:09:45;;;;;;;;;;;22.00;53.90;;;;;;5125706;27;20344;-55
2022/07/01 08:12:11;;;;;;;;;;;22.10;53.70;;;;;;5112436;27;19931;-59
2022/07/01 08:14:37;;;;;;;;;;;22.10;53.50;;;;;;5129366;27;20003;-57
2022/07/01 08:17:03;;;;;;;;;;;22.00;53.60;;;;;;5124051;27;20453;-56
2022/07/01 08:19:29;;;;;;;;;;;21.90;53.70;;;;;;5129419;27;19927;-55
2022/07/01 08:21:55;;;;;;;;;;;21.80;53.10;;;;;;5124088;27;19923;-56
2022/07/01 08:24:20;;;;;;;;;;;21.50;51.20;;;;;;5124190;27;19934;-56
2022/07/01 08:26:46;;;;;;;;;;;21.40;50.40;;;;;;5128040;27;20430;-58
2022/07/01 08:29:12;;;;;;;;;;;21.50;51.30;;;;;;5122966;27;20276;-57
2022/07/01 08:31:38;;;;;;;;;;;21.70;52.90;;;;;;5124482;27;19923;-59
2022/07/01 08:34:03;;;;;;;;;;;21.70;53.30;;;;;;5128797;27;19927;-56
2022/07/01 08:36:29;;;;;;;;;;;21.70;53.60;;;;;;5123878;27;19930;-56
2022/07/01 08:38:55;;;;;;;;;;;21.70;54.10;;;;;;5129259;27;20389;-56
2022/07/01 08:41:21;;;;;;;;;;;21.80;54.10;;;;;;5123427;27;19979;-55
2022/07/01 08:43:48;;;;;;;;;;;21.80;54.20;;;;;;5122687;27;22273;-56
2022/07/01 08:46:14;;;;;;;;;;;21.80;54.30;;;;;;5090896;27;19932;-58
2022/07/01 08:48:43;;;;;;;;;;;21.90;54.20;;;;;;5122822;27;19981;-54
2022/07/01 08:51:09;;;;;;;;;;;21.90;54.10;;;;;;5123211;27;20062;-56
2022/07/01 08:53:35;;;;;;;;;;;21.90;54.00;;;;;;5128926;27;19930;-56
2022/07/01 08:58:47;;;;;;;;;;;21.80;54.10;;;;;;5122184;27;20392;-58
2022/07/01 09:01:16;;;;;;;;;;;21.90;54.00;;;;;;5109277;27;20401;-56
2022/07/01 09:03:43;;;;;;;;;;;21.90;53.90;;;;;;5121701;27;19928;-57
2022/07/01 09:06:13;;;;;;;;;;;21.90;53.90;;;;;;5127671;27;20343;-58
2022/07/01 09:08:39;;;;;;;;;;;22.00;53.70;;;;;;5122571;27;19928;-56
2022/07/01 09:11:21;;;;;;;;;;;22.00;53.60;;;;;;5123080;27;19928;-55
2022/07/01 09:14:06;;;;;;;;;;;22.00;53.60;;;;;;5110074;27;19970;-54
2022/07/01 09:16:41;;;;;;;;;;;22.00;53.60;;;;;;5125770;27;19931;-54
2022/07/01 09:19:07;;;;;;;;;;;22.00;53.50;;;;;;5122803;27;20382;-53
2022/07/01 09:21:33;;;;;;;;;;;22.00;53.50;;;;;;5108782;27;19941;-55
2022/07/01 09:23:59;;;;;;;;;;;22.00;53.50;;;;;;5121440;27;19933;-53
2022/07/01 09:26:27;;;;;;;;;;;22.00;53.60;;;;;;5122027;27;19923;-55
2022/07/01 09:28:54;;;;;;;;;;;22.00;53.50;;;;;;5128018;27;19924;-53
2022/07/01 09:31:20;;;;;;;;;;;22.10;53.30;;;;;;5122793;27;19968;-55
2022/07/01 09:33:45;;;;;;;;;;;22.00;53.20;;;;;;5122609;27;20617;-52
2022/07/01 09:36:15;;;;;;;;;;;22.00;53.30;;;;;;5128139;27;19924;-51
2022/07/01 09:38:47;;;;;;;;;;;22.00;53.40;;;;;;5122518;27;19929;-55
2022/07/01 09:41:13;;;;;;;;;;;22.00;53.50;;;;;;5105221;27;19930;-58
2022/07/01 09:43:39;;;;;;;;;;;22.00;53.40;;;;;;5124564;27;19929;-51
2022/07/01 09:46:08;;;;;;;;;;;22.10;53.20;;;;;;5122308;27;20290;-51
2022/07/01 09:48:35;;;;;;;;;;;22.10;53.00;;;;;;5127451;27;19980;-52
2022/07/01 09:51:01;;;;;;;;;;;22.10;52.80;;;;;;5122155;27;20045;-53
2022/07/01 09:53:27;;;;;;;;;;;22.10;52.90;;;;;;5122442;27;19931;-50
2022/07/01 09:55:52;;;;;;;;;;;22.00;53.00;;;;;;5127831;27;19958;-54
2022/07/01 09:58:18;;;;;;;;;;;22.00;52.90;;;;;;5120868;27;19935;-55
2022/07/01 10:00:44;;;;;;;;;;;22.10;52.80;;;;;;5121026;27;19923;-51
2022/07/01 10:03:10;;;;;;;;;;;22.10;52.90;;;;;;5126966;27;20060;-56
2022/07/01 10:05:44;;;;;;;;;;;22.10;52.70;;;;;;5121770;27;19927;-51
2022/07/01 10:08:14;;;;;;;;;;;22.10;52.40;;;;;;5108847;27;20321;-53
2022/07/01 10:10:59;;;;;;;;;;;22.20;52.30;;;;;;5123145;27;19932;-50
2022/07/01 10:13:25;;;;;;;;;;;22.00;52.70;;;;;;5121959;27;20239;-55
2022/07/01 10:15:51;;;;;;;;;;;22.10;52.80;;;;;;5126960;27;20180;-53
2022/07/01 10:18:21;;;;;;;;;;;22.10;52.60;;;;;;5120294;27;19965;-54
2022/07/01 10:20:48;;;;;;;;;;;22.20;52.50;;;;;;5121398;27;20022;-53
2022/07/01 10:23:13;;;;;;;;;;;22.20;52.40;;;;;;5126944;27;20454;-53
2022/07/01 10:25:42;;;;;;;;;;;22.20;52.20;;;;;;5121558;27;20034;-52
2022/07/01 10:28:14;;;;;;;;;;;21.90;51.50;;;;;;5121438;27;19935;-53
2022/07/01 10:30:53;;;;;;;;;;;21.70;50.00;;;;;;5127105;27;20324;-51
2022/07/01 10:33:29;;;;;;;;;;;21.40;49.30;;;;;;5121627;27;20008;-52
2022/07/01 10:35:55;;;;;;;;;;;21.60;50.90;;;;;;5119735;27;19931;-53
2022/07/01 10:38:21;;;;;;;;;;;21.80;52.20;;;;;;5125853;27;19930;-53
2022/07/01 10:40:48;;;;;;;;;;;21.80;52.70;;;;;;5121285;27;19974;-50
2022/07/01 10:43:14;;;;;;;;;;;21.80;52.90;;;;;;5122007;27;20018;-59
2022/07/01 10:45:41;;;;;;;;;;;22.00;53.00;;;;;;5126637;27;19935;-51
2022/07/01 10:48:20;;;;;;;;;;;22.00;52.90;;;;;;5121669;27;19929;-50
2022/07/01 10:50:45;;;;;;;;;;;22.10;52.80;;;;;;5126775;27;19930;-49
2022/07/01 10:53:11;;;;;;;;;;;22.00;52.60;;;;;;5120088;27;20306;-53
2022/07/01 10:55:37;;;;;;;;;;;22.00;52.50;;;;;;5119873;27;19923;-50
2022/07/01 10:58:03;;;;;;;;;;;22.00;52.60;;;;;;5126022;27;20446;-51
2022/07/01 11:00:31;;;;;;;;;;;22.00;52.40;;;;;;5121113;27;19928;-53
2022/07/01 11:03:26;;;;;;;;;;;22.10;52.40;;;;;;5103091;28;19962;-49
2022/07/01 11:05:53;;;;;;;;;;;22.10;52.10;;;;;;5112769;28;20014;-55
2022/07/01 11:08:19;;;;;;;;;;;22.20;51.80;;;;;;5120852;28;19928;-49
2022/07/01 11:10:47;;;;;;;;;;;22.20;51.50;;;;;;5120870;27;19966;-50
2022/07/01 11:13:14;;;;;;;;;;;22.20;51.30;;;;;;5089102;28;19931;-49
2022/07/01 11:15:40;;;;;;;;;;;22.20;51.10;;;;;;5120504;28;19933;-48
2022/07/01 11:18:05;;;;;;;;;;;22.20;51.30;;;;;;5121478;28;19924;-59
2022/07/01 11:20:31;;;;;;;;;;;22.10;51.60;;;;;;5107646;28;19963;-54
2022/07/01 11:22:57;;;;;;;;;;;22.10;51.50;;;;;;5102626;28;19928;-50
2022/07/01 11:25:23;;;;;;;;;;;22.10;51.40;;;;;;5126613;28;20579;-52
2022/07/01 11:27:49;;;;;;;;;;;22.20;51.30;;;;;;5121112;28;20294;-51
2022/07/01 11:30:15;;;;;;;;;;;22.20;50.90;;;;;;5119861;28;19931;-50
2022/07/01 11:32:44;;;;;;;;;;;22.30;50.80;;;;;;5125177;28;20427;-53
2022/07/01 11:40:51;;;;;;;;;;;22.10;51.00;;;;;;5126412;28;20268;-50
2022/07/01 11:43:24;;;;;;;;;;;22.00;51.60;;;;;;5121140;27;19935;-49
2022/07/01 11:45:50;;;;;;;;;;;22.10;51.50;;;;;;5102234;28;19928;-53
2022/07/01 11:48:31;;;;;;;;;;;22.10;51.30;;;;;;5125104;28;20022;-52
2022/07/01 11:50:57;;;;;;;;;;;22.20;51.00;;;;;;5122510;27;20408;-53
2022/07/01 11:53:24;;;;;;;;;;;22.20;50.60;;;;;;5124189;27;19923;-52
2022/07/01 11:55:49;;;;;;;;;;;22.30;50.50;;;;;;5129846;27;19927;-52
2022/07/01 11:58:15;;;;;;;;;;;22.30;50.50;;;;;;5124558;27;20389;-53
2022/07/01 12:00:41;;;;;;;;;;;22.30;50.80;;;;;;5124655;27;20347;-55
2022/07/01 12:03:07;;;;;;;;;;;22.20;51.10;;;;;;5111697;27;20393;-47
2022/07/01 12:05:34;;;;;;;;;;;22.10;51.30;;;;;;5124203;27;19992;-53
2022/07/01 12:07:59;;;;;;;;;;;22.20;51.20;;;;;;5127530;27;20398;-53
2022/07/01 12:10:26;;;;;;;;;;;22.20;51.20;;;;;;5105169;27;20026;-50
2022/07/01 12:12:51;;;;;;;;;;;22.30;51.20;;;;;;5105141;27;19931;-51
2022/07/01 12:15:17;;;;;;;;;;;22.20;51.10;;;;;;5129310;27;19924;-46
2022/07/01 12:17:43;;;;;;;;;;;22.20;51.20;;;;;;5124090;27;20360;-44
2022/07/01 12:20:09;;;;;;;;;;;22.30;50.80;;;;;;5105678;27;19924;-45
2022/07/01 12:22:34;;;;;;;;;;;22.20;51.10;;;;;;5129287;27;19976;-46
2022/07/01 12:25:04;;;;;;;;;;;22.10;51.40;;;;;;5123134;27;19972;-48
2022/07/01 12:27:32;;;;;;;;;;;22.20;51.40;;;;;;5128151;27;19996;-46
2022/07/01 12:29:58;;;;;;;;;;;22.30;51.00;;;;;;5105265;27;19945;-47
2022/07/01 12:32:25;;;;;;;;;;;22.20;51.10;;;;;;5123684;27;19927;-45
2022/07/01 12:34:51;;;;;;;;;;;21.90;49.80;;;;;;5129312;27;19938;-45
2022/07/01 12:37:17;;;;;;;;;;;21.70;48.50;;;;;;5123691;27;20375;-44
2022/07/01 12:39:44;;;;;;;;;;;21.80;48.20;;;;;;5123770;27;20259;-44
2022/07/01 12:42:19;;;;;;;;;;;21.80;50.60;;;;;;5129043;27;20018;-46
2022/07/01 12:44:45;;;;;;;;;;;22.00;51.00;;;;;;5121729;27;19930;-45
2022/07/01 12:47:37;;;;;;;;;;;22.00;51.10;;;;;;5122834;27;20400;-45
2022/07/01 12:50:16;;;;;;;;;;;22.00;51.20;;;;;;5125646;27;20288;-48
2022/07/01 12:52:43;;;;;;;;;;;22.10;51.10;;;;;;5123539;27;19934;-45
2022/07/01 12:55:16;;;;;;;;;;;22.10;50.80;;;;;;5123337;27;20272;-43
2022/07/01 12:57:41;;;;;;;;;;;22.10;50.70;;;;;;5129054;27;19924;-43
2022/07/01 13:00:07;;;;;;;;;;;22.20;50.70;;;;;;5123238;27;19935;-44
2022/07/01 13:02:33;;;;;;;;;;;22.20;50.60;;;;;;5122816;27;20022;-54
2022/07/01 13:04:59;;;;;;;;;;;22.10;50.80;;;;;;5126289;27;20025;-46
2022/07/01 13:07:25;;;;;;;;;;;22.20;50.60;;;;;;5122716;27;20363;-46
2022/07/01 13:09:50;;;;;;;;;;;22.10;50.70;;;;;;5128443;27;20294;-45
2022/07/01 13:12:16;;;;;;;;;;;22.20;51.00;;;;;;5123240;27;19923;-46
2022/07/01 13:14:42;;;;;;;;;;;22.20;51.00;;;;;;5123436;27;20347;-45
2022/07/01 13:17:08;;;;;;;;;;;22.20;51.10;;;;;;5128438;27;19923;-44
2022/07/01 13:19:34;;;;;;;;;;;22.30;50.90;;;;;;5122407;27;19956;-46
2022/07/01 13:22:01;;;;;;;;;;;22.30;50.90;;;;;;5120990;27;19923;-46
2022/07/01 13:24:27;;;;;;;;;;;22.20;51.60;;;;;;5127755;27;19928;-45
2022/07/01 13:26:53;;;;;;;;;;;22.20;51.60;;;;;;5123184;27;19974;-45
2022/07/01 13:29:18;;;;;;;;;;;22.00;52.80;;;;;;5128060;27;19928;-44
2022/07/01 13:31:44;;;;;;;;;;;22.20;52.50;;;;;;5122676;27;19928;-46
2022/07/01 13:34:10;;;;;;;;;;;22.20;52.20;;;;;;5122942;27;19923;-48
2022/07/01 13:36:36;;;;;;;;;;;22.30;52.00;;;;;;5110065;27;20312;-45
2022/07/01 13:39:01;;;;;;;;;;;22.30;51.70;;;;;;5117407;27;19946;-44
2022/07/01 13:41:27;;;;;;;;;;;22.10;53.00;;;;;;5102558;27;19942;-44
2022/07/01 13:43:53;;;;;;;;;;;22.30;52.50;;;;;;5127601;27;20294;-49
2022/07/01 13:46:19;;;;;;;;;;;22.10;53.40;;;;;;5123147;27;19931;-46
2022/07/01 13:48:45;;;;;;;;;;;20.50;55.60;;;;;;5109462;27;19927;-48
2022/07/01 13:51:10;;;;;;;;;;;19.90;56.30;;;;;;5123080;27;19924;-45
2022/07/01 13:53:36;;;;;;;;;;;20.10;58.30;;;;;;5122689;27;19923;-46
2022/07/01 13:56:02;;;;;;;;;;;20.70;62.20;;;;;;5127670;27;19923;-48
2022/07/01 13:58:28;;;;;;;;;;;21.30;60.50;;;;;;5101114;27;20465;-46
2022/07/01 14:00:54;;;;;;;;;;;21.70;58.20;;;;;;5121510;27;19991;-47
2022/07/01 14:03:20;;;;;;;;;;;21.80;56.50;;;;;;5127242;27;20278;-48
2022/07/01 14:05:46;;;;;;;;;;;21.90;55.60;;;;;;5121951;27;19923;-50
2022/07/01 14:08:11;;;;;;;;;;;22.00;55.00;;;;;;5127679;27;19924;-45
2022/07/01 14:10:37;;;;;;;;;;;22.10;54.40;;;;;;5122513;27;19935;-45
2022/07/01 14:13:06;;;;;;;;;;;22.20;54.10;;;;;;5121704;27;19927;-45
2022/07/01 14:15:32;;;;;;;;;;;22.20;53.70;;;;;;5125936;27;20324;-49
2022/07/01 14:17:57;;;;;;;;;;;22.30;53.30;;;;;;5120712;27;19927;-47
2022/07/01 14:20:23;;;;;;;;;;;22.30;52.90;;;;;;5121408;27;19927;-49
2022/07/01 14:22:49;;;;;;;;;;;22.30;52.80;;;;;;5126986;27;19930;-46
2022/07/01 14:25:15;;;;;;;;;;;22.30;52.40;;;;;;5121600;27;19931;-45
2022/07/01 14:27:41;;;;;;;;;;;22.30;52.30;;;;;;5124287;27;19934;-54
2022/07/01 14:30:07;;;;;;;;;;;22.40;52.00;;;;;;5124821;27;19979;-47